Time;durP1;ratioP1;P1;durP2;ratioP2;P2;SDS_P1;SDS_P2;PMS_P1;PMS_P2;Temp;Humidity;BMP_temperature;BMP_pressure;BME280_temperature;BME280_humidity;BME280_pressure;Samples;Min_cycle;Max_cycle;Signal;HPM_P1;HPM_P2
2023/11/19 00:01:08;;;;;;;0.55;0.10;;;7.50;99.90;;;;;;5019933;28;19917;-63
2023/11/19 00:03:34;;;;;;;0.17;0.15;;;7.50;99.90;;;;;;5025030;28;20466;-62
2023/11/19 00:06:01;;;;;;;0.25;0.10;;;7.50;99.90;;;;;;5019506;28;20037;-62
2023/11/19 00:08:27;;;;;;;0.10;0.10;;;7.60;99.90;;;;;;5024431;28;20049;-63
2023/11/19 00:10:52;;;;;;;0.10;0.10;;;7.60;99.90;;;;;;5017916;28;20494;-61
2023/11/19 00:13:18;;;;;;;0.22;0.20;;;7.60;99.90;;;;;;5026329;28;21363;-61
2023/11/19 00:15:45;;;;;;;0.43;0.10;;;7.60;99.90;;;;;;5018260;28;20064;-61
2023/11/19 00:18:10;;;;;;;0.10;0.10;;;7.60;99.90;;;;;;5011815;28;20117;-62
2023/11/19 00:20:36;;;;;;;0.30;0.20;;;7.60;99.90;;;;;;5008464;28;20121;-61
2023/11/19 00:23:02;;;;;;;0.10;0.10;;;7.70;99.90;;;;;;5006944;28;20042;-61
2023/11/19 00:25:28;;;;;;;0.20;0.20;;;7.70;99.90;;;;;;5008943;28;20076;-62
2023/11/19 00:27:53;;;;;;;0.22;0.22;;;7.60;99.90;;;;;;5007145;28;20656;-59
2023/11/19 00:30:19;;;;;;;;;;;7.70;99.90;;;;;;5007106;28;20042;-60
2023/11/19 00:32:45;;;;;;;0.20;0.20;;;7.70;99.90;;;;;;5006524;28;19918;-59
2023/11/19 00:35:12;;;;;;;2.28;0.20;;;7.70;99.90;;;;;;5007973;28;20428;-62
2023/11/19 00:37:38;;;;;;;0.10;0.10;;;7.70;99.90;;;;;;5003875;28;20046;-59
2023/11/19 00:40:05;;;;;;;0.30;0.20;;;7.70;99.90;;;;;;5004488;28;20041;-62
2023/11/19 00:42:31;;;;;;;0.32;0.10;;;7.80;99.90;;;;;;5005076;28;20054;-63
2023/11/19 00:44:57;;;;;;;0.17;0.15;;;7.80;99.90;;;;;;5003005;28;20169;-62
2023/11/19 00:47:23;;;;;;;0.10;0.10;;;7.90;99.90;;;;;;5004342;28;20046;-60
2023/11/19 00:49:49;;;;;;;1.05;0.10;;;7.90;99.90;;;;;;5007521;28;20045;-63
2023/11/19 00:52:16;;;;;;;0.20;0.20;;;7.90;99.90;;;;;;5004921;28;20099;-61
2023/11/19 00:54:42;;;;;;;0.20;0.17;;;7.90;99.90;;;;;;5007623;28;20697;-61
2023/11/19 00:57:08;;;;;;;0.10;0.10;;;7.90;99.90;;;;;;5007204;28;20041;-63
2023/11/19 00:59:34;;;;;;;0.20;0.20;;;7.90;99.90;;;;;;5006514;28;20037;-61
2023/11/19 01:02:03;;;;;;;;;;;7.90;99.90;;;;;;5004398;28;20549;-61
2023/11/19 01:04:29;;;;;;;0.13;0.13;;;8.00;99.90;;;;;;5010383;28;19920;-62
2023/11/19 01:06:55;;;;;;;0.30;0.20;;;7.90;99.90;;;;;;5006410;28;20045;-62
2023/11/19 01:09:20;;;;;;;0.20;0.20;;;8.00;99.90;;;;;;5005950;28;20048;-60
2023/11/19 01:11:46;;;;;;;;;;;8.10;99.90;;;;;;5005552;28;20224;-61
2023/11/19 01:14:12;;;;;;;0.52;0.17;;;8.10;99.90;;;;;;5008865;28;19944;-61
2023/11/19 01:16:37;;;;;;;;;;;8.10;99.90;;;;;;5006316;28;20077;-62
2023/11/19 01:19:04;;;;;;;2.47;0.52;;;8.20;99.90;;;;;;5004599;28;19928;-62
2023/11/19 01:21:31;;;;;;;0.45;0.20;;;8.20;99.90;;;;;;5001297;28;20042;-61
2023/11/19 01:23:58;;;;;;;5.13;0.30;;;8.30;99.90;;;;;;5002787;28;20045;-61
2023/11/19 01:26:24;;;;;;;0.35;0.22;;;8.30;99.90;;;;;;5010841;28;20056;-58
2023/11/19 01:28:52;;;;;;;0.20;0.20;;;8.30;99.90;;;;;;5004263;28;20042;-61
2023/11/19 01:31:18;;;;;;;1.58;0.20;;;8.40;99.90;;;;;;5006113;28;20045;-63
2023/11/19 01:33:43;;;;;;;;;;;8.40;99.90;;;;;;5005279;28;20046;-63
2023/11/19 01:36:12;;;;;;;0.20;0.20;;;8.40;99.90;;;;;;5004630;28;20725;-61
2023/11/19 01:38:38;;;;;;;2.13;0.20;;;8.40;99.90;;;;;;5002903;28;20044;-60
2023/11/19 01:41:03;;;;;;;;;;;8.40;99.90;;;;;;5007176;28;20038;-60
2023/11/19 01:43:33;;;;;;;2.60;0.30;;;8.50;99.90;;;;;;5004915;28;19921;-62
2023/11/19 01:45:59;;;;;;;4.65;0.40;;;8.40;99.90;;;;;;5006163;28;20068;-63
2023/11/19 01:48:25;;;;;;;;;;;8.50;99.90;;;;;;5003247;28;20042;-62
2023/11/19 01:50:52;;;;;;;0.52;0.22;;;8.50;99.90;;;;;;5005664;28;19922;-63
2023/11/19 01:53:18;;;;;;;0.35;0.28;;;8.50;99.90;;;;;;5003650;28;20042;-59
2023/11/19 01:55:46;;;;;;;0.28;0.20;;;8.50;99.90;;;;;;5005157;28;20046;-63
2023/11/19 01:58:12;;;;;;;0.95;0.20;;;8.60;99.90;;;;;;5004569;28;20038;-60
2023/11/19 02:00:38;;;;;;;;;;;8.60;99.90;;;;;;5005744;28;20053;-62
2023/11/19 02:03:08;;;;;;;1.55;0.60;;;8.70;99.90;;;;;;5003613;28;20428;-62
2023/11/19 02:05:34;;;;;;;1.92;0.30;;;8.70;99.90;;;;;;5010719;28;20049;-62
2023/11/19 02:08:00;;;;;;;1.05;0.30;;;8.70;99.90;;;;;;5005192;28;20045;-61
2023/11/19 02:10:26;;;;;;;0.50;0.50;;;8.70;99.90;;;;;;5008438;28;20049;-62
2023/11/19 02:12:52;;;;;;;;;;;8.80;99.90;;;;;;5004155;28;20040;-62
2023/11/19 02:15:21;;;;;;;1.05;0.60;;;8.80;99.90;;;;;;5007328;28;19917;-62
2023/11/19 02:17:47;;;;;;;0.80;0.60;;;8.90;99.90;;;;;;5003968;28;20037;-63
2023/11/19 02:20:14;;;;;;;;;;;8.90;99.90;;;;;;5011796;28;20635;-63
2023/11/19 02:22:40;;;;;;;1.02;0.50;;;8.90;99.90;;;;;;5002745;28;19922;-63
2023/11/19 02:25:19;;;;;;;1.35;0.60;;;9.00;99.90;;;;;;5004322;28;20773;-63
2023/11/19 02:27:55;;;;;;;2.20;0.57;;;9.00;99.90;;;;;;5002567;28;20046;-62
2023/11/19 02:30:26;;;;;;;0.45;0.32;;;9.00;99.90;;;;;;5005143;28;20072;-63
2023/11/19 02:32:57;;;;;;;1.55;0.40;;;9.00;99.90;;;;;;5003351;28;20042;-62
2023/11/19 02:35:23;;;;;;;0.82;0.30;;;9.00;99.90;;;;;;5006032;28;20081;-63
2023/11/19 02:37:49;;;;;;;1.02;0.32;;;9.10;99.90;;;;;;5001803;28;20065;-62
2023/11/19 02:40:15;;;;;;;;;;;9.00;99.90;;;;;;5005431;28;20064;-62
2023/11/19 02:42:41;;;;;;;0.30;0.30;;;9.10;99.90;;;;;;5005033;28;20024;-63
2023/11/19 02:45:07;;;;;;;0.10;0.10;;;9.10;99.90;;;;;;5003905;28;20038;-62
2023/11/19 02:47:34;;;;;;;0.20;0.20;;;9.20;99.90;;;;;;5006195;28;20042;-63
2023/11/19 02:50:00;;;;;;;0.10;0.10;;;9.20;99.90;;;;;;5004431;28;20048;-62
2023/11/19 02:52:26;;;;;;;0.13;0.10;;;9.20;99.90;;;;;;5005002;28;20042;-62
2023/11/19 02:54:51;;;;;;;;;;;9.20;99.90;;;;;;5003620;28;20443;-62
2023/11/19 02:57:19;;;;;;;0.10;0.10;;;9.20;99.90;;;;;;5004383;28;19927;-61
2023/11/19 02:59:45;;;;;;;1.20;0.13;;;9.20;99.90;;;;;;5003512;28;20037;-62
2023/11/19 03:02:11;;;;;;;;;;;9.20;99.90;;;;;;5008113;28;20065;-62
2023/11/19 03:04:40;;;;;;;0.33;0.20;;;9.20;99.90;;;;;;5004488;28;19924;-61
2023/11/19 03:07:07;;;;;;;0.30;0.10;;;9.20;99.90;;;;;;5009312;28;22040;-63
2023/11/19 03:09:34;;;;;;;0.35;0.20;;;9.30;99.90;;;;;;5002988;28;20041;-65
2023/11/19 03:12:00;;;;;;;2.28;0.30;;;9.20;99.90;;;;;;5008416;28;20462;-62
2023/11/19 03:14:26;;;;;;;;;;;9.20;99.90;;;;;;5007954;28;20116;-63
2023/11/19 03:16:51;;;;;;;2.03;0.50;;;9.20;99.90;;;;;;5004137;28;19948;-64
2023/11/19 03:19:17;;;;;;;;;;;9.30;99.90;;;;;;5001152;28;20420;-63
2023/11/19 03:21:42;;;;;;;1.63;0.88;;;9.30;99.90;;;;;;5007620;28;20031;-61
2023/11/19 03:24:08;;;;;;;;;;;9.30;99.90;;;;;;5003578;28;20061;-62
2023/11/19 03:26:34;;;;;;;2.88;1.10;;;9.30;99.90;;;;;;5000152;28;19916;-59
2023/11/19 03:29:00;;;;;;;4.10;0.90;;;9.30;99.90;;;;;;5003548;28;20053;-64
2023/11/19 03:31:26;;;;;;;2.65;1.30;;;9.30;99.90;;;;;;5005088;28;20038;-61
2023/11/19 03:33:51;;;;;;;;;;;9.30;99.90;;;;;;5000891;28;20048;-63
2023/11/19 03:36:17;;;;;;;2.60;0.70;;;9.30;99.90;;;;;;5010330;28;19921;-61
2023/11/19 03:38:43;;;;;;;4.65;1.38;;;9.30;99.90;;;;;;5001135;28;20069;-61
2023/11/19 03:41:12;;;;;;;;;;;9.30;99.90;;;;;;5004191;28;20077;-61
2023/11/19 03:43:39;;;;;;;3.50;1.02;;;9.30;99.90;;;;;;5007300;28;20393;-63
2023/11/19 03:46:05;;;;;;;5.82;1.00;;;9.40;99.90;;;;;;5001948;28;20125;-61
2023/11/19 03:48:31;;;;;;;8.75;1.13;;;9.30;99.90;;;;;;5001121;28;20092;-59
2023/11/19 03:50:56;;;;;;;;;;;9.40;99.90;;;;;;5004619;28;20169;-62
2023/11/19 03:53:23;;;;;;;6.82;1.98;;;9.40;99.90;;;;;;5011075;28;19952;-60
2023/11/19 03:55:49;;;;;;;3.72;1.00;;;9.40;99.90;;;;;;4999302;28;20054;-62
2023/11/19 03:58:15;;;;;;;;;;;9.50;99.90;;;;;;5008967;28;20029;-60
2023/11/19 04:00:40;;;;;;;3.85;1.23;;;9.50;99.90;;;;;;5007047;28;19921;-62
2023/11/19 04:03:06;;;;;;;9.60;1.67;;;9.50;99.90;;;;;;5007053;28;20436;-61
2023/11/19 04:05:32;;;;;;;12.43;1.60;;;9.50;99.90;;;;;;5007757;28;20048;-62
2023/11/19 04:07:57;;;;;;;10.45;1.85;;;9.50;99.90;;;;;;5000471;28;20046;-61
2023/11/19 04:10:23;;;;;;;;;;;9.60;99.90;;;;;;5003618;28;20049;-61
2023/11/19 04:12:48;;;;;;;6.40;1.77;;;9.60;99.90;;;;;;5006269;28;19921;-61
2023/11/19 04:15:14;;;;;;;;;;;9.50;99.90;;;;;;5010946;28;20050;-61
2023/11/19 04:17:40;;;;;;;8.57;1.70;;;9.60;99.90;;;;;;5009522;28;19936;-62
2023/11/19 04:20:13;;;;;;;5.13;1.52;;;9.60;99.90;;;;;;5007489;28;20277;-61
2023/11/19 04:22:38;;;;;;;8.95;1.60;;;9.60;99.90;;;;;;5008592;28;20762;-66
2023/11/19 04:25:04;;;;;;;;;;;9.60;99.90;;;;;;5008794;28;20026;-63
2023/11/19 04:27:30;;;;;;;8.18;1.85;;;9.60;99.90;;;;;;5005922;28;19924;-63
2023/11/19 04:29:55;;;;;;;9.93;2.35;;;9.60;99.90;;;;;;5004070;28;20095;-62
2023/11/19 04:32:21;;;;;;;9.30;2.15;;;9.60;99.90;;;;;;5023846;28;20045;-62
2023/11/19 04:34:46;;;;;;;9.82;3.28;;;9.60;99.90;;;;;;5024481;28;20037;-61
2023/11/19 04:37:12;;;;;;;7.65;2.25;;;9.60;99.90;;;;;;5021177;28;20044;-63
2023/11/19 04:39:38;;;;;;;;;;;9.60;99.90;;;;;;5026224;28;20045;-63
2023/11/19 04:42:04;;;;;;;9.00;2.10;;;9.70;99.90;;;;;;5027069;28;20687;-60
2023/11/19 04:44:30;;;;;;;10.85;1.90;;;9.70;99.90;;;;;;5029061;28;20497;-62
2023/11/19 04:46:56;;;;;;;9.73;2.83;;;9.70;99.90;;;;;;5023760;28;20045;-61
2023/11/19 04:49:21;;;;;;;;;;;9.70;99.90;;;;;;5029417;28;20090;-62
2023/11/19 04:51:47;;;;;;;12.45;2.55;;;9.70;99.90;;;;;;5023346;28;19948;-62
2023/11/19 04:54:13;;;;;;;6.78;1.80;;;9.70;99.90;;;;;;5024296;28;20073;-62
2023/11/19 04:56:39;;;;;;;16.70;2.20;;;9.70;99.90;;;;;;5026650;28;20053;-60
2023/11/19 04:59:06;;;;;;;15.30;2.78;;;9.70;99.90;;;;;;5025224;28;20063;-61
2023/11/19 05:01:33;;;;;;;11.43;2.50;;;9.70;99.90;;;;;;5026929;28;20722;-62
2023/11/19 05:03:59;;;;;;;11.95;2.80;;;9.70;99.90;;;;;;5020457;28;20091;-62
2023/11/19 05:06:28;;;;;;;6.45;2.10;;;9.70;99.90;;;;;;5026116;28;20801;-62
2023/11/19 05:08:54;;;;;;;9.60;2.05;;;9.70;99.90;;;;;;5027244;28;20053;-61
2023/11/19 05:11:19;;;;;;;;;;;9.70;99.90;;;;;;5026270;28;20042;-61
2023/11/19 05:13:45;;;;;;;7.72;2.03;;;9.70;99.90;;;;;;5025641;28;19928;-59
2023/11/19 05:16:14;;;;;;;11.98;2.00;;;9.70;99.90;;;;;;5025866;28;20053;-62
2023/11/19 05:18:39;;;;;;;16.27;2.50;;;9.80;99.90;;;;;;5023906;28;20037;-61
2023/11/19 05:21:05;;;;;;;;;;;9.80;99.90;;;;;;5025726;28;20456;-58
2023/11/19 05:23:31;;;;;;;9.95;2.70;;;9.80;99.90;;;;;;5026057;28;19932;-62
2023/11/19 05:25:58;;;;;;;;;;;9.80;99.90;;;;;;5024186;28;20505;-62
2023/11/19 05:28:24;;;;;;;11.38;2.13;;;9.80;99.90;;;;;;5023477;28;19924;-61
2023/11/19 05:30:50;;;;;;;6.82;1.98;;;9.80;99.90;;;;;;5025032;28;20050;-61
2023/11/19 05:33:15;;;;;;;;;;;9.80;99.90;;;;;;5021917;28;20041;-61
2023/11/19 05:35:41;;;;;;;11.35;2.00;;;9.80;99.90;;;;;;5027379;28;19920;-61
2023/11/19 05:38:06;;;;;;;10.18;2.03;;;9.80;99.90;;;;;;5022826;28;20045;-62
2023/11/19 05:40:32;;;;;;;6.80;2.10;;;9.80;99.90;;;;;;5023908;28;20036;-61
2023/11/19 05:42:58;;;;;;;9.10;2.20;;;9.80;99.90;;;;;;5020569;28;20113;-62
2023/11/19 05:45:23;;;;;;;;;;;9.80;99.90;;;;;;5029106;28;20103;-63
2023/11/19 05:47:49;;;;;;;12.98;2.40;;;9.80;99.90;;;;;;5024269;28;20385;-63
2023/11/19 05:50:14;;;;;;;;;;;9.80;99.90;;;;;;5031368;28;20682;-61
2023/11/19 05:52:40;;;;;;;18.15;2.47;;;9.80;99.90;;;;;;5025668;28;19921;-61
2023/11/19 05:55:09;;;;;;;22.92;2.40;;;9.80;99.90;;;;;;5027736;28;20447;-62
2023/11/19 05:57:36;;;;;;;21.52;2.97;;;9.80;99.90;;;;;;5020857;28;20076;-61
2023/11/19 06:00:05;;;;;;;17.67;3.00;;;9.90;99.90;;;;;;5024944;28;20548;-61
2023/11/19 06:02:33;;;;;;;17.42;2.88;;;9.90;99.90;;;;;;5021345;28;20563;-62
2023/11/19 06:04:58;;;;;;;16.00;2.80;;;9.90;99.90;;;;;;5026381;28;20033;-62
2023/11/19 06:07:24;;;;;;;;;;;9.90;99.90;;;;;;5023459;28;20053;-62
2023/11/19 06:09:50;;;;;;;20.08;2.55;;;9.80;99.90;;;;;;5027006;28;20008;-61
2023/11/19 06:12:16;;;;;;;;;;;9.80;99.90;;;;;;5024627;28;20446;-59
2023/11/19 06:14:41;;;;;;;23.85;3.42;;;9.80;99.90;;;;;;5027249;28;19921;-61
2023/11/19 06:17:08;;;;;;;;;;;9.70;99.90;;;;;;5017703;28;20037;-61
2023/11/19 06:19:34;;;;;;;20.63;2.60;;;9.70;99.90;;;;;;5022374;28;19925;-61
2023/11/19 06:21:59;;;;;;;;;;;9.70;99.90;;;;;;5025163;28;20280;-60
2023/11/19 06:24:25;;;;;;;19.60;3.60;;;9.70;99.90;;;;;;5022897;28;19959;-63
2023/11/19 06:26:50;;;;;;;19.48;3.83;;;9.70;99.90;;;;;;5024954;28;20529;-62
2023/11/19 06:29:19;;;;;;;12.70;2.88;;;9.70;99.90;;;;;;5020564;28;20046;-60
2023/11/19 06:31:45;;;;;;;22.30;3.00;;;9.60;99.90;;;;;;5022260;28;20127;-62
2023/11/19 06:34:11;;;;;;;17.85;3.28;;;9.60;99.90;;;;;;5023127;28;20037;-62
2023/11/19 06:36:37;;;;;;;;;;;9.60;99.90;;;;;;5022180;28;20045;-61
2023/11/19 06:39:03;;;;;;;19.15;3.70;;;9.60;99.90;;;;;;5023531;28;19928;-62
2023/11/19 06:41:29;;;;;;;12.35;2.72;;;9.70;99.90;;;;;;5023564;28;20049;-62
2023/11/19 06:43:54;;;;;;;;;;;9.60;99.90;;;;;;5023525;28;20040;-63
2023/11/19 06:46:20;;;;;;;21.30;3.75;;;9.60;99.90;;;;;;5023642;28;20436;-63
2023/11/19 06:48:46;;;;;;;;;;;9.60;99.90;;;;;;5024763;28;20563;-62
2023/11/19 06:51:12;;;;;;;26.85;3.75;;;9.60;99.90;;;;;;5027448;28;19947;-63
2023/11/19 06:53:39;;;;;;;13.20;2.58;;;9.50;99.90;;;;;;5023706;28;23335;-64
2023/11/19 06:56:16;;;;;;;15.60;3.13;;;9.60;99.90;;;;;;5024552;28;20513;-62
2023/11/19 06:58:42;;;;;;;21.10;3.83;;;9.60;99.90;;;;;;5021169;28;20044;-62
2023/11/19 07:01:08;;;;;;;;;;;9.60;99.90;;;;;;5020644;28;20037;-60
2023/11/19 07:03:35;;;;;;;22.38;4.13;;;9.60;99.90;;;;;;5022292;28;19917;-61
2023/11/19 07:06:00;;;;;;;20.25;4.18;;;9.50;99.90;;;;;;5025077;28;20100;-62
2023/11/19 07:08:26;;;;;;;;;;;9.50;99.90;;;;;;5021839;28;20108;-61
2023/11/19 07:10:52;;;;;;;23.90;4.18;;;9.50;99.90;;;;;;5028271;28;19925;-59
2023/11/19 07:13:19;;;;;;;;;;;9.50;99.90;;;;;;5029832;28;20037;-60
2023/11/19 07:15:44;;;;;;;27.33;4.15;;;9.50;99.90;;;;;;5027342;28;19944;-59
2023/11/19 07:18:11;;;;;;;;;;;9.50;99.90;;;;;;5019272;28;20497;-62
2023/11/19 07:20:37;;;;;;;18.92;3.70;;;9.40;99.90;;;;;;5025911;28;19974;-64
2023/11/19 07:23:03;;;;;;;21.05;4.40;;;9.40;99.90;;;;;;5022232;28;20106;-60
2023/11/19 07:25:29;;;;;;;;;;;9.40;99.90;;;;;;5024899;28;20041;-62
2023/11/19 07:27:55;;;;;;;28.23;3.88;;;9.50;99.90;;;;;;5024814;28;19925;-62
2023/11/19 07:30:20;;;;;;;;;;;9.60;99.90;;;;;;5029052;28;20053;-62
2023/11/19 07:32:46;;;;;;;20.83;2.92;;;9.70;99.90;;;;;;5026766;28;20408;-63
2023/11/19 07:35:11;;;;;;;;;;;9.70;99.90;;;;;;5028461;28;20045;-62
2023/11/19 07:37:37;;;;;;;22.73;4.47;;;9.70;99.90;;;;;;5026232;28;20392;-61
2023/11/19 07:40:03;;;;;;;;;;;9.70;99.90;;;;;;5028572;28;20116;-61
2023/11/19 07:42:29;;;;;;;26.73;3.58;;;9.70;99.90;;;;;;5025636;28;19921;-62
2023/11/19 07:44:56;;;;;;;21.75;4.05;;;9.70;99.90;;;;;;5026866;28;20041;-60
2023/11/19 07:47:23;;;;;;;28.95;4.40;;;9.70;99.90;;;;;;5023088;28;20606;-62
2023/11/19 07:49:50;;;;;;;28.95;3.72;;;9.70;99.90;;;;;;5023603;28;20305;-62
2023/11/19 07:52:15;;;;;;;18.63;3.70;;;9.60;99.90;;;;;;5025266;28;20662;-61
2023/11/19 07:54:41;;;;;;;;;;;9.60;99.90;;;;;;5001305;28;20127;-62
2023/11/19 07:57:07;;;;;;;25.65;4.65;;;9.60;99.90;;;;;;5009799;28;20051;-57
2023/11/19 07:59:32;;;;;;;;;;;9.60;99.90;;;;;;5021173;28;20519;-63
2023/11/19 08:01:58;;;;;;;28.63;4.35;;;9.60;99.90;;;;;;5026121;28;19928;-64
2023/11/19 08:04:24;;;;;;;;;;;9.60;99.90;;;;;;5027066;28;20083;-64
2023/11/19 08:06:49;;;;;;;23.60;4.30;;;9.60;99.90;;;;;;5025489;28;19917;-61
2023/11/19 08:09:15;;;;;;;31.38;4.38;;;9.60;99.90;;;;;;5026623;28;20089;-63
2023/11/19 08:11:43;;;;;;;22.05;3.97;;;9.50;99.90;;;;;;5029242;28;20075;-63
2023/11/19 08:14:09;;;;;;;23.23;4.32;;;9.40;99.90;;;;;;5033791;28;20130;-63
2023/11/19 08:16:36;;;;;;;;;;;9.40;99.90;;;;;;5029329;28;20178;-63
2023/11/19 08:19:03;;;;;;;22.15;4.28;;;9.40;99.90;;;;;;5025357;28;20276;-63
2023/11/19 08:21:28;;;;;;;26.17;3.53;;;9.40;99.90;;;;;;5031084;28;20693;-63
2023/11/19 08:23:54;;;;;;;;;;;9.50;99.90;;;;;;5023873;28;20505;-66
2023/11/19 08:26:20;;;;;;;15.70;4.07;;;9.50;99.90;;;;;;5027523;28;19917;-65
2023/11/19 08:28:45;;;;;;;19.88;3.63;;;9.50;99.90;;;;;;5021423;28;20041;-63
2023/11/19 08:31:11;;;;;;;;;;;9.60;99.90;;;;;;5024882;28;20041;-63
2023/11/19 08:33:36;;;;;;;21.42;3.58;;;9.60;99.90;;;;;;5021804;28;19956;-65
2023/11/19 08:36:03;;;;;;;;;;;9.60;99.90;;;;;;5025722;28;20072;-63
2023/11/19 08:38:29;;;;;;;18.17;3.80;;;9.70;99.90;;;;;;5022131;28;19921;-63
2023/11/19 08:40:59;;;;;;;24.33;3.33;;;9.70;99.90;;;;;;5023869;28;20042;-63
2023/11/19 08:43:25;;;;;;;18.75;3.95;;;9.70;99.90;;;;;;5021449;28;20049;-63
2023/11/19 08:45:51;;;;;;;21.48;4.20;;;9.60;99.90;;;;;;5026472;28;20045;-63
2023/11/19 08:48:16;;;;;;;;;;;9.60;99.90;;;;;;5027025;28;20094;-63
2023/11/19 08:50:42;;;;;;;24.98;3.85;;;9.70;99.90;;;;;;5025231;28;19916;-63
2023/11/19 08:53:07;;;;;;;25.67;3.65;;;9.60;99.90;;;;;;5024672;28;20552;-63
2023/11/19 08:55:33;;;;;;;32.50;4.55;;;9.60;99.90;;;;;;5026660;28;20127;-63
2023/11/19 08:57:59;;;;;;;;;;;9.60;99.90;;;;;;5026417;28;20688;-63
2023/11/19 09:00:24;;;;;;;18.38;2.97;;;9.60;99.90;;;;;;5023074;28;19920;-64
2023/11/19 09:02:50;;;;;;;;;;;9.60;99.90;;;;;;5025509;28;20654;-63
2023/11/19 09:05:15;;;;;;;23.90;4.70;;;9.50;99.90;;;;;;5027118;28;20004;-63
2023/11/19 09:07:41;;;;;;;;;;;9.60;99.90;;;;;;5026938;28;20732;-63
2023/11/19 09:10:08;;;;;;;18.23;4.45;;;9.70;99.90;;;;;;5026161;28;19960;-63
2023/11/19 09:12:34;;;;;;;24.85;4.60;;;9.70;99.90;;;;;;5027281;28;20052;-64
2023/11/19 09:15:00;;;;;;;20.85;4.22;;;9.80;99.90;;;;;;5029486;28;20064;-63
2023/11/19 09:17:26;;;;;;;;;;;9.90;99.90;;;;;;5024916;28;20041;-63
2023/11/19 09:19:51;;;;;;;34.30;5.43;;;9.90;99.90;;;;;;5025251;28;19928;-63
2023/11/19 09:22:17;;;;;;;;;;;9.90;99.90;;;;;;5027761;28;20052;-63
2023/11/19 09:24:44;;;;;;;28.58;4.63;;;9.90;99.90;;;;;;5022826;28;19920;-64
2023/11/19 09:27:10;;;;;;;30.63;4.10;;;10.00;99.90;;;;;;5027793;28;20047;-64
2023/11/19 09:29:36;;;;;;;22.98;4.25;;;10.10;99.90;;;;;;5025859;28;20553;-64
2023/11/19 09:32:01;;;;;;;;;;;10.10;99.90;;;;;;5021326;28;20034;-63
2023/11/19 09:34:27;;;;;;;24.70;4.70;;;10.10;99.90;;;;;;5023392;28;20425;-63
2023/11/19 09:36:54;;;;;;;29.20;3.92;;;10.10;99.90;;;;;;5025305;28;20103;-64
2023/11/19 09:39:21;;;;;;;21.42;3.47;;;10.00;99.90;;;;;;5021578;28;20095;-63
2023/11/19 09:41:47;;;;;;;26.48;4.78;;;9.90;99.90;;;;;;5024693;28;20037;-64
2023/11/19 09:44:14;;;;;;;31.33;4.50;;;9.80;99.90;;;;;;5024868;28;20103;-63
2023/11/19 09:46:41;;;;;;;25.90;4.55;;;9.70;99.90;;;;;;5005366;28;20064;-64
2023/11/19 09:49:09;;;;;;;27.85;4.13;;;9.60;99.90;;;;;;5024737;28;20046;-63
2023/11/19 09:51:38;;;;;;;17.45;3.75;;;9.70;99.90;;;;;;5023774;28;20041;-63
2023/11/19 09:54:04;;;;;;;19.90;3.95;;;9.80;99.90;;;;;;5025172;28;20083;-64
2023/11/19 09:56:30;;;;;;;;;;;10.00;99.90;;;;;;5025053;28;20577;-64
2023/11/19 09:58:56;;;;;;;23.33;3.58;;;10.10;99.90;;;;;;5021376;28;19921;-63
2023/11/19 10:01:21;;;;;;;;;;;10.20;99.90;;;;;;5023295;28;20091;-64
2023/11/19 10:03:47;;;;;;;25.30;3.88;;;10.30;99.90;;;;;;5022845;28;19921;-64
2023/11/19 10:06:15;;;;;;;26.38;3.40;;;10.50;99.90;;;;;;5024180;28;20065;-64
2023/11/19 10:08:42;;;;;;;37.95;6.00;;;10.60;99.90;;;;;;5025625;28;20045;-64
2023/11/19 10:11:08;;;;;;;21.67;4.32;;;10.70;99.90;;;;;;5021401;28;20042;-64
2023/11/19 10:13:42;;;;;;;27.42;4.78;;;10.70;99.90;;;;;;5027465;28;20041;-66
2023/11/19 10:16:11;;;;;;;18.80;4.90;;;10.70;99.90;;;;;;5023411;28;20095;-64
2023/11/19 10:18:37;;;;;;;23.30;3.97;;;10.80;99.90;;;;;;5024503;28;20117;-64
2023/11/19 10:21:06;;;;;;;28.25;4.40;;;10.90;99.90;;;;;;5023774;28;20047;-64
2023/11/19 10:23:32;;;;;;;30.65;4.88;;;10.80;99.90;;;;;;5027999;28;20045;-64
2023/11/19 10:26:05;;;;;;;;;;;10.80;99.90;;;;;;5023345;28;20520;-63
2023/11/19 10:28:39;;;;;;;28.85;6.20;;;10.90;99.90;;;;;;5024253;28;19979;-64
2023/11/19 10:31:05;;;;;;;19.60;4.57;;;10.90;99.90;;;;;;5022384;28;20338;-64
2023/11/19 10:33:31;;;;;;;;;;;11.00;99.90;;;;;;5026453;28;20624;-64
2023/11/19 10:35:57;;;;;;;24.55;4.90;;;10.90;99.90;;;;;;5024298;28;19920;-64
2023/11/19 10:38:25;;;;;;;30.52;4.82;;;10.90;99.90;;;;;;5023889;28;20133;-64
2023/11/19 10:40:51;;;;;;;25.17;4.47;;;10.90;99.90;;;;;;5023897;28;20043;-63
2023/11/19 10:43:18;;;;;;;18.92;4.05;;;11.00;99.90;;;;;;5022951;28;20057;-64
2023/11/19 10:45:44;;;;;;;27.70;5.18;;;11.00;99.90;;;;;;5024691;28;20048;-63
2023/11/19 10:48:09;;;;;;;;;;;11.00;99.90;;;;;;5024076;28;20508;-64
2023/11/19 10:50:40;;;;;;;25.00;4.43;;;11.00;99.90;;;;;;5027765;28;19917;-63
2023/11/19 10:53:08;;;;;;;26.42;4.50;;;11.10;99.90;;;;;;5022745;28;20061;-63
2023/11/19 10:55:37;;;;;;;27.60;4.50;;;11.00;99.90;;;;;;5008930;28;20052;-63
2023/11/19 10:58:05;;;;;;;33.28;4.88;;;11.00;99.90;;;;;;5022631;28;20105;-63
2023/11/19 11:00:47;;;;;;;24.52;3.60;;;11.00;99.90;;;;;;5007329;28;20046;-63
2023/11/19 11:03:19;;;;;;;29.30;5.43;;;11.20;99.90;;;;;;5023987;28;20047;-64
2023/11/19 11:05:48;;;;;;;24.60;5.05;;;11.10;99.90;;;;;;5025258;28;20398;-64
2023/11/19 11:08:15;;;;;;;24.52;4.07;;;11.20;99.90;;;;;;5023816;28;20168;-63
2023/11/19 11:10:44;;;;;;;29.73;4.28;;;11.40;99.90;;;;;;5024164;28;20057;-64
2023/11/19 11:13:12;;;;;;;29.80;4.18;;;11.50;99.90;;;;;;5023484;28;20810;-63
2023/11/19 11:15:38;;;;;;;30.05;4.68;;;11.50;99.90;;;;;;5025875;28;20099;-63
2023/11/19 11:18:08;;;;;;;30.83;4.80;;;11.50;99.90;;;;;;5023721;28;20073;-62
2023/11/19 11:20:34;;;;;;;24.40;4.80;;;11.50;99.90;;;;;;5028355;28;20883;-63
2023/11/19 11:23:37;;;;;;;21.45;4.55;;;11.40;99.90;;;;;;5023698;28;20037;-63
2023/11/19 11:26:03;;;;;;;28.75;4.20;;;11.40;99.90;;;;;;5025808;28;20754;-63
2023/11/19 11:28:43;;;;;;;;;;;11.40;99.90;;;;;;5024640;28;20128;-62
2023/11/19 11:31:37;;;;;;;26.40;4.60;;;11.40;99.90;;;;;;5027946;28;20005;-63
2023/11/19 11:34:02;;;;;;;19.30;3.55;;;11.40;99.90;;;;;;5016456;28;20103;-63
2023/11/19 11:36:30;;;;;;;;;;;11.30;99.90;;;;;;5025927;28;20665;-64
2023/11/19 11:39:00;;;;;;;24.27;3.83;;;11.30;99.90;;;;;;5019898;28;20384;-63
2023/11/19 11:41:26;;;;;;;29.65;4.22;;;11.40;99.90;;;;;;5028592;28;20041;-63
2023/11/19 11:43:55;;;;;;;21.63;3.85;;;11.20;99.90;;;;;;5023076;28;20047;-64
2023/11/19 11:46:33;;;;;;;34.25;4.55;;;11.30;99.90;;;;;;5020077;28;20041;-63
2023/11/19 11:49:09;;;;;;;19.15;4.00;;;11.30;99.90;;;;;;5017253;28;20056;-63
2023/11/19 11:51:48;;;;;;;32.50;5.30;;;11.20;99.90;;;;;;5014236;28;20050;-63
2023/11/19 11:54:19;;;;;;;29.65;5.85;;;11.20;99.90;;;;;;5022956;28;20092;-63
2023/11/19 11:57:13;;;;;;;26.45;5.20;;;11.20;99.90;;;;;;5022364;28;20053;-65
2023/11/19 11:59:41;;;;;;;26.30;5.75;;;11.20;99.90;;;;;;5019265;28;20129;-65
2023/11/19 12:02:16;;;;;;;20.88;3.45;;;11.20;99.90;;;;;;5023518;28;20064;-65
2023/11/19 12:04:42;;;;;;;30.45;4.20;;;11.00;99.90;;;;;;5019560;28;20048;-64
2023/11/19 12:07:19;;;;;;;30.70;4.45;;;10.80;99.90;;;;;;5022294;28;20429;-64
2023/11/19 12:09:53;;;;;;;26.27;4.63;;;10.70;99.90;;;;;;5019691;28;20053;-65
2023/11/19 12:12:21;;;;;;;24.05;4.05;;;10.60;99.90;;;;;;5023304;28;20064;-64
2023/11/19 12:15:00;;;;;;;20.42;3.10;;;10.50;99.90;;;;;;5024953;28;20191;-63
2023/11/19 12:17:41;;;;;;;23.05;3.38;;;10.50;99.90;;;;;;5026584;28;20071;-63
2023/11/19 12:20:08;;;;;;;26.67;3.60;;;10.40;99.90;;;;;;5027534;28;20521;-63
2023/11/19 12:22:44;;;;;;;26.88;4.07;;;10.40;99.90;;;;;;5027692;28;20523;-64
2023/11/19 12:25:14;;;;;;;22.77;3.35;;;10.30;99.90;;;;;;5027864;28;20037;-64
2023/11/19 12:27:42;;;;;;;18.83;3.88;;;10.20;99.90;;;;;;5024522;28;20132;-63
2023/11/19 12:30:08;;;;;;;27.35;4.25;;;10.20;99.90;;;;;;5026107;28;20045;-63
2023/11/19 12:32:47;;;;;;;21.95;4.18;;;10.10;99.90;;;;;;5026939;28;20052;-63
2023/11/19 12:35:12;;;;;;;25.88;4.15;;;10.00;99.90;;;;;;5025473;28;20053;-63
2023/11/19 12:37:39;;;;;;;;;;;10.00;99.90;;;;;;5025203;28;21003;-63
2023/11/19 12:40:12;;;;;;;21.17;4.15;;;10.10;99.90;;;;;;5024754;28;19917;-63
2023/11/19 12:42:38;;;;;;;15.80;3.45;;;10.00;99.90;;;;;;5023624;28;20137;-63
2023/11/19 12:45:04;;;;;;;;;;;9.90;99.90;;;;;;5005138;28;20540;-63
2023/11/19 12:47:30;;;;;;;22.83;3.78;;;9.80;99.90;;;;;;5025564;28;19917;-64
2023/11/19 12:49:56;;;;;;;;;;;9.70;99.90;;;;;;5027818;28;20057;-63
2023/11/19 12:52:23;;;;;;;21.85;3.03;;;9.70;99.90;;;;;;5029278;28;20447;-62
2023/11/19 12:54:49;;;;;;;23.30;3.83;;;9.60;99.90;;;;;;5027074;28;20140;-64
2023/11/19 12:57:15;;;;;;;27.23;4.00;;;9.60;99.90;;;;;;5011327;28;20501;-63
2023/11/19 12:59:41;;;;;;;;;;;9.50;99.90;;;;;;5026322;28;20038;-63
2023/11/19 13:02:06;;;;;;;16.63;4.78;;;9.60;99.90;;;;;;5026851;28;19924;-63
2023/11/19 13:04:32;;;;;;;;;;;9.60;99.90;;;;;;5025117;28;20041;-63
2023/11/19 13:07:04;;;;;;;27.13;4.13;;;9.70;99.90;;;;;;5024896;28;19917;-63